sensor_id;sensor_type;location;lat;lon;timestamp;temperature;humidity
19610;DHT22;9952;47.122;-1.638;2022-07-29T00:00:46;21.70;99.90
19610;DHT22;9952;47.122;-1.638;2022-07-29T00:05:27;21.70;99.90
19610;DHT22;9952;47.122;-1.638;2022-07-29T00:10:08;21.70;99.90
19610;DHT22;9952;47.122;-1.638;2022-07-29T00:14:49;21.70;99.90
19610;DHT22;9952;47.122;-1.638;2022-07-29T00:19:30;21.60;99.90
19610;DHT22;9952;47.122;-1.638;2022-07-29T00:24:10;21.60;99.90
19610;DHT22;9952;47.122;-1.638;2022-07-29T00:28:51;21.60;99.90
19610;DHT22;9952;47.122;-1.638;2022-07-29T00:33:32;21.60;99.90
19610;DHT22;9952;47.122;-1.638;2022-07-29T00:38:14;21.60;99.90
19610;DHT22;9952;47.122;-1.638;2022-07-29T00:42:55;21.70;99.90
19610;DHT22;9952;47.122;-1.638;2022-07-29T00:47:35;21.70;99.90
19610;DHT22;9952;47.122;-1.638;2022-07-29T00:52:16;21.70;99.90
19610;DHT22;9952;47.122;-1.638;2022-07-29T00:57:01;21.60;99.90
19610;DHT22;9952;47.122;-1.638;2022-07-29T01:01:42;21.50;99.90
19610;DHT22;9952;47.122;-1.638;2022-07-29T01:06:23;21.50;99.90
19610;DHT22;9952;47.122;-1.638;2022-07-29T01:11:05;21.40;99.90
19610;DHT22;9952;47.122;-1.638;2022-07-29T01:15:56;21.40;99.90
19610;DHT22;9952;47.122;-1.638;2022-07-29T01:30:54;21.40;99.90
19610;DHT22;9952;47.122;-1.638;2022-07-29T01:35:39;21.40;99.90
19610;DHT22;9952;47.122;-1.638;2022-07-29T01:45:38;21.30;99.90
19610;DHT22;9952;47.122;-1.638;2022-07-29T01:50:26;21.30;99.90
19610;DHT22;9952;47.122;-1.638;2022-07-29T01:55:13;21.30;99.90
19610;DHT22;9952;47.122;-1.638;2022-07-29T01:59:57;21.30;99.90
19610;DHT22;9952;47.122;-1.638;2022-07-29T02:04:40;21.20;99.90
19610;DHT22;9952;47.122;-1.638;2022-07-29T02:09:22;21.10;99.90
19610;DHT22;9952;47.122;-1.638;2022-07-29T02:14:04;21.10;99.90
19610;DHT22;9952;47.122;-1.638;2022-07-29T02:18:45;21.00;99.90
19610;DHT22;9952;47.122;-1.638;2022-07-29T02:23:30;20.90;99.90
19610;DHT22;9952;47.122;-1.638;2022-07-29T02:28:12;20.90;99.90
19610;DHT22;9952;47.122;-1.638;2022-07-29T02:32:53;20.90;99.90
19610;DHT22;9952;47.122;-1.638;2022-07-29T02:37:36;20.80;99.90
19610;DHT22;9952;47.122;-1.638;2022-07-29T02:42:18;20.80;99.90
19610;DHT22;9952;47.122;-1.638;2022-07-29T02:51:54;20.70;99.90
19610;DHT22;9952;47.122;-1.638;2022-07-29T02:56:38;20.70;99.90
19610;DHT22;9952;47.122;-1.638;2022-07-29T03:01:22;20.70;99.90
19610;DHT22;9952;47.122;-1.638;2022-07-29T03:06:05;20.60;99.90
19610;DHT22;9952;47.122;-1.638;2022-07-29T03:10:47;20.60;99.90
19610;DHT22;9952;47.122;-1.638;2022-07-29T03:15:29;20.60;99.90
19610;DHT22;9952;47.122;-1.638;2022-07-29T03:20:11;20.60;99.90
19610;DHT22;9952;47.122;-1.638;2022-07-29T03:24:53;20.60;99.90
19610;DHT22;9952;47.122;-1.638;2022-07-29T03:29:34;20.50;99.90
19610;DHT22;9952;47.122;-1.638;2022-07-29T03:34:15;20.50;99.90
19610;DHT22;9952;47.122;-1.638;2022-07-29T03:38:55;20.50;99.90
19610;DHT22;9952;47.122;-1.638;2022-07-29T03:43:38;20.50;99.90
19610;DHT22;9952;47.122;-1.638;2022-07-29T03:48:22;20.40;99.90
19610;DHT22;9952;47.122;-1.638;2022-07-29T03:53:04;20.40;99.90
19610;DHT22;9952;47.122;-1.638;2022-07-29T03:57:46;20.40;99.90
19610;DHT22;9952;47.122;-1.638;2022-07-29T04:02:28;20.30;99.90
19610;DHT22;9952;47.122;-1.638;2022-07-29T04:07:12;20.30;99.90
19610;DHT22;9952;47.122;-1.638;2022-07-29T04:11:53;20.20;99.90
19610;DHT22;9952;47.122;-1.638;2022-07-29T04:16:34;20.20;99.90
19610;DHT22;9952;47.122;-1.638;2022-07-29T04:21:15;20.10;99.90
19610;DHT22;9952;47.122;-1.638;2022-07-29T04:25:55;20.10;99.90
19610;DHT22;9952;47.122;-1.638;2022-07-29T04:30:37;20.10;99.90
19610;DHT22;9952;47.122;-1.638;2022-07-29T04:35:19;20.10;99.90
19610;DHT22;9952;47.122;-1.638;2022-07-29T04:39:59;20.10;99.90
19610;DHT22;9952;47.122;-1.638;2022-07-29T04:44:40;20.00;99.90
19610;DHT22;9952;47.122;-1.638;2022-07-29T04:49:21;20.00;99.90
19610;DHT22;9952;47.122;-1.638;2022-07-29T04:54:02;19.90;99.90
19610;DHT22;9952;47.122;-1.638;2022-07-29T04:58:42;19.80;99.90
19610;DHT22;9952;47.122;-1.638;2022-07-29T05:03:23;19.80;99.90
19610;DHT22;9952;47.122;-1.638;2022-07-29T05:08:04;19.80;99.90
19610;DHT22;9952;47.122;-1.638;2022-07-29T05:12:45;19.80;99.90
19610;DHT22;9952;47.122;-1.638;2022-07-29T05:17:26;19.80;99.90
19610;DHT22;9952;47.122;-1.638;2022-07-29T05:22:07;19.80;99.90
19610;DHT22;9952;47.122;-1.638;2022-07-29T05:26:47;19.70;99.90
19610;DHT22;9952;47.122;-1.638;2022-07-29T05:31:28;19.80;99.90
19610;DHT22;9952;47.122;-1.638;2022-07-29T05:36:09;19.80;99.90
19610;DHT22;9952;47.122;-1.638;2022-07-29T05:40:50;19.80;99.90
19610;DHT22;9952;47.122;-1.638;2022-07-29T05:45:30;19.80;99.90
19610;DHT22;9952;47.122;-1.638;2022-07-29T05:50:11;19.80;99.90
19610;DHT22;9952;47.122;-1.638;2022-07-29T05:54:52;19.80;99.90
19610;DHT22;9952;47.122;-1.638;2022-07-29T05:59:37;19.80;99.90
19610;DHT22;9952;47.122;-1.638;2022-07-29T06:04:18;19.80;99.90
19610;DHT22;9952;47.122;-1.638;2022-07-29T06:09:00;19.90;99.90
19610;DHT22;9952;47.122;-1.638;2022-07-29T06:13:41;19.90;99.90
19610;DHT22;9952;47.122;-1.638;2022-07-29T06:18:22;20.00;99.90
19610;DHT22;9952;47.122;-1.638;2022-07-29T06:23:06;20.10;99.90
19610;DHT22;9952;47.122;-1.638;2022-07-29T06:27:47;20.20;99.90
19610;DHT22;9952;47.122;-1.638;2022-07-29T06:32:27;20.20;99.90
19610;DHT22;9952;47.122;-1.638;2022-07-29T06:37:08;20.20;99.90
19610;DHT22;9952;47.122;-1.638;2022-07-29T06:41:50;20.20;99.90
19610;DHT22;9952;47.122;-1.638;2022-07-29T06:46:31;20.30;99.90
19610;DHT22;9952;47.122;-1.638;2022-07-29T06:51:12;20.30;99.90
19610;DHT22;9952;47.122;-1.638;2022-07-29T06:55:53;20.30;99.90
19610;DHT22;9952;47.122;-1.638;2022-07-29T07:00:34;20.30;99.90
19610;DHT22;9952;47.122;-1.638;2022-07-29T07:05:14;20.40;99.90
19610;DHT22;9952;47.122;-1.638;2022-07-29T07:09:55;20.50;99.90
19610;DHT22;9952;47.122;-1.638;2022-07-29T07:14:36;20.60;99.90
19610;DHT22;9952;47.122;-1.638;2022-07-29T07:19:17;20.60;99.90
19610;DHT22;9952;47.122;-1.638;2022-07-29T07:23:59;20.70;99.90
19610;DHT22;9952;47.122;-1.638;2022-07-29T07:28:40;20.80;99.90
19610;DHT22;9952;47.122;-1.638;2022-07-29T07:33:21;20.90;99.90
19610;DHT22;9952;47.122;-1.638;2022-07-29T07:38:02;21.00;99.90
19610;DHT22;9952;47.122;-1.638;2022-07-29T07:42:43;21.10;99.90
19610;DHT22;9952;47.122;-1.638;2022-07-29T07:47:23;21.10;99.90
19610;DHT22;9952;47.122;-1.638;2022-07-29T07:52:04;21.20;99.90
19610;DHT22;9952;47.122;-1.638;2022-07-29T07:56:45;21.20;99.90
19610;DHT22;9952;47.122;-1.638;2022-07-29T08:01:29;21.30;99.90
19610;DHT22;9952;47.122;-1.638;2022-07-29T08:06:10;21.30;99.90
19610;DHT22;9952;47.122;-1.638;2022-07-29T08:10:51;21.40;99.90
19610;DHT22;9952;47.122;-1.638;2022-07-29T08:15:36;21.50;99.90
19610;DHT22;9952;47.122;-1.638;2022-07-29T08:20:17;21.60;99.90
19610;DHT22;9952;47.122;-1.638;2022-07-29T08:24:58;21.70;99.90
19610;DHT22;9952;47.122;-1.638;2022-07-29T08:29:40;21.80;99.90
19610;DHT22;9952;47.122;-1.638;2022-07-29T08:34:21;21.90;99.90
19610;DHT22;9952;47.122;-1.638;2022-07-29T08:39:03;22.10;99.90
19610;DHT22;9952;47.122;-1.638;2022-07-29T08:43:44;22.30;99.90
19610;DHT22;9952;47.122;-1.638;2022-07-29T08:48:25;22.50;99.90
19610;DHT22;9952;47.122;-1.638;2022-07-29T08:53:08;22.90;99.90
19610;DHT22;9952;47.122;-1.638;2022-07-29T08:57:51;24.20;99.90
19610;DHT22;9952;47.122;-1.638;2022-07-29T09:02:35;25.20;99.90
19610;DHT22;9952;47.122;-1.638;2022-07-29T09:07:19;26.10;99.90
19610;DHT22;9952;47.122;-1.638;2022-07-29T09:12:01;27.20;99.90
19610;DHT22;9952;47.122;-1.638;2022-07-29T09:16:55;27.80;99.90
19610;DHT22;9952;47.122;-1.638;2022-07-29T09:21:40;27.70;99.90
19610;DHT22;9952;47.122;-1.638;2022-07-29T09:26:44;27.70;99.90
19610;DHT22;9952;47.122;-1.638;2022-07-29T09:31:37;27.90;99.90
19610;DHT22;9952;47.122;-1.638;2022-07-29T09:36:18;27.70;99.90
19610;DHT22;9952;47.122;-1.638;2022-07-29T09:41:00;27.10;99.90
19610;DHT22;9952;47.122;-1.638;2022-07-29T09:45:41;27.00;99.90
19610;DHT22;9952;47.122;-1.638;2022-07-29T09:50:22;27.00;99.90
19610;DHT22;9952;47.122;-1.638;2022-07-29T09:55:09;26.90;99.90
19610;DHT22;9952;47.122;-1.638;2022-07-29T10:00:05;27.10;99.90
19610;DHT22;9952;47.122;-1.638;2022-07-29T10:04:47;27.30;99.90
19610;DHT22;9952;47.122;-1.638;2022-07-29T10:09:28;27.30;99.90
19610;DHT22;9952;47.122;-1.638;2022-07-29T10:14:09;27.40;99.90
19610;DHT22;9952;47.122;-1.638;2022-07-29T10:18:50;27.70;99.90
19610;DHT22;9952;47.122;-1.638;2022-07-29T10:23:31;27.80;99.90
19610;DHT22;9952;47.122;-1.638;2022-07-29T10:28:12;27.80;99.90
19610;DHT22;9952;47.122;-1.638;2022-07-29T10:33:21;27.80;99.90
19610;DHT22;9952;47.122;-1.638;2022-07-29T10:43:21;28.00;99.90
19610;DHT22;9952;47.122;-1.638;2022-07-29T10:48:04;28.10;99.90
19610;DHT22;9952;47.122;-1.638;2022-07-29T10:57:30;28.50;99.90
19610;DHT22;9952;47.122;-1.638;2022-07-29T11:07:11;28.60;99.90
19610;DHT22;9952;47.122;-1.638;2022-07-29T11:11:53;28.60;99.90
19610;DHT22;9952;47.122;-1.638;2022-07-29T11:17:01;28.30;99.90
19610;DHT22;9952;47.122;-1.638;2022-07-29T11:21:44;28.80;99.90
19610;DHT22;9952;47.122;-1.638;2022-07-29T11:26:30;28.80;99.90
19610;DHT22;9952;47.122;-1.638;2022-07-29T11:31:11;29.10;99.90
19610;DHT22;9952;47.122;-1.638;2022-07-29T11:36:11;29.30;99.90
19610;DHT22;9952;47.122;-1.638;2022-07-29T11:41:22;29.30;99.90
19610;DHT22;9952;47.122;-1.638;2022-07-29T11:46:03;29.90;99.90
19610;DHT22;9952;47.122;-1.638;2022-07-29T11:50:44;30.10;99.90
19610;DHT22;9952;47.122;-1.638;2022-07-29T11:55:25;30.00;99.60
19610;DHT22;9952;47.122;-1.638;2022-07-29T12:00:07;30.30;99.00
19610;DHT22;9952;47.122;-1.638;2022-07-29T12:04:54;30.50;98.50
19610;DHT22;9952;47.122;-1.638;2022-07-29T12:09:36;30.60;97.60
19610;DHT22;9952;47.122;-1.638;2022-07-29T12:14:27;30.90;97.30
19610;DHT22;9952;47.122;-1.638;2022-07-29T12:19:08;31.10;96.90
19610;DHT22;9952;47.122;-1.638;2022-07-29T12:23:53;31.20;96.60
19610;DHT22;9952;47.122;-1.638;2022-07-29T12:28:38;31.50;95.70
19610;DHT22;9952;47.122;-1.638;2022-07-29T12:33:24;31.60;95.10
19610;DHT22;9952;47.122;-1.638;2022-07-29T12:38:05;31.60;94.60
19610;DHT22;9952;47.122;-1.638;2022-07-29T12:43:05;32.00;93.70
19610;DHT22;9952;47.122;-1.638;2022-07-29T12:47:51;32.10;93.00
19610;DHT22;9952;47.122;-1.638;2022-07-29T12:52:34;32.20;92.60
19610;DHT22;9952;47.122;-1.638;2022-07-29T12:57:15;32.00;92.30
19610;DHT22;9952;47.122;-1.638;2022-07-29T13:01:56;32.30;91.80
19610;DHT22;9952;47.122;-1.638;2022-07-29T13:06:39;32.40;91.20
19610;DHT22;9952;47.122;-1.638;2022-07-29T13:11:32;32.30;91.40
19610;DHT22;9952;47.122;-1.638;2022-07-29T13:16:13;32.40;90.20
19610;DHT22;9952;47.122;-1.638;2022-07-29T13:20:55;32.60;90.00
19610;DHT22;9952;47.122;-1.638;2022-07-29T13:25:35;32.60;90.10
19610;DHT22;9952;47.122;-1.638;2022-07-29T13:30:21;32.60;89.00
19610;DHT22;9952;47.122;-1.638;2022-07-29T13:35:05;32.50;88.10
19610;DHT22;9952;47.122;-1.638;2022-07-29T13:39:46;32.50;88.40
19610;DHT22;9952;47.122;-1.638;2022-07-29T13:44:28;32.40;87.40
19610;DHT22;9952;47.122;-1.638;2022-07-29T13:49:08;32.40;88.40
19610;DHT22;9952;47.122;-1.638;2022-07-29T13:53:49;32.40;87.40
19610;DHT22;9952;47.122;-1.638;2022-07-29T13:58:30;32.50;86.20
19610;DHT22;9952;47.122;-1.638;2022-07-29T14:03:10;32.50;85.50
19610;DHT22;9952;47.122;-1.638;2022-07-29T14:07:51;32.50;84.40
19610;DHT22;9952;47.122;-1.638;2022-07-29T14:12:32;32.60;84.20
19610;DHT22;9952;47.122;-1.638;2022-07-29T14:17:14;32.70;82.30
19610;DHT22;9952;47.122;-1.638;2022-07-29T14:21:54;32.70;81.10
19610;DHT22;9952;47.122;-1.638;2022-07-29T14:26:35;32.30;81.20
19610;DHT22;9952;47.122;-1.638;2022-07-29T14:31:16;31.80;90.00
19610;DHT22;9952;47.122;-1.638;2022-07-29T14:35:57;31.70;91.80
19610;DHT22;9952;47.122;-1.638;2022-07-29T14:40:37;31.60;92.80
19610;DHT22;9952;47.122;-1.638;2022-07-29T14:45:18;31.70;93.10
19610;DHT22;9952;47.122;-1.638;2022-07-29T14:49:59;31.70;93.30
19610;DHT22;9952;47.122;-1.638;2022-07-29T14:54:40;31.40;93.30
19610;DHT22;9952;47.122;-1.638;2022-07-29T14:59:21;31.10;94.00
19610;DHT22;9952;47.122;-1.638;2022-07-29T15:04:02;31.00;94.20
19610;DHT22;9952;47.122;-1.638;2022-07-29T15:08:42;30.70;95.10
19610;DHT22;9952;47.122;-1.638;2022-07-29T15:13:24;30.40;96.00
19610;DHT22;9952;47.122;-1.638;2022-07-29T15:18:05;30.30;97.20
19610;DHT22;9952;47.122;-1.638;2022-07-29T15:22:46;30.30;96.60
19610;DHT22;9952;47.122;-1.638;2022-07-29T15:27:27;30.10;96.30
19610;DHT22;9952;47.122;-1.638;2022-07-29T15:32:07;29.80;96.50
19610;DHT22;9952;47.122;-1.638;2022-07-29T15:36:49;29.40;97.60
19610;DHT22;9952;47.122;-1.638;2022-07-29T15:41:31;29.30;98.00
19610;DHT22;9952;47.122;-1.638;2022-07-29T15:46:17;29.30;97.00
19610;DHT22;9952;47.122;-1.638;2022-07-29T15:51:16;29.00;96.70
19610;DHT22;9952;47.122;-1.638;2022-07-29T15:55:57;28.80;96.70
19610;DHT22;9952;47.122;-1.638;2022-07-29T16:00:37;28.80;96.70
19610;DHT22;9952;47.122;-1.638;2022-07-29T16:05:18;28.60;95.90
19610;DHT22;9952;47.122;-1.638;2022-07-29T16:09:59;28.40;96.30
19610;DHT22;9952;47.122;-1.638;2022-07-29T16:14:40;28.20;96.00
19610;DHT22;9952;47.122;-1.638;2022-07-29T16:19:21;28.10;98.10
19610;DHT22;9952;47.122;-1.638;2022-07-29T16:24:03;28.00;98.60
19610;DHT22;9952;47.122;-1.638;2022-07-29T16:28:44;27.90;99.40
19610;DHT22;9952;47.122;-1.638;2022-07-29T16:33:25;28.00;99.90
19610;DHT22;9952;47.122;-1.638;2022-07-29T16:38:06;27.80;99.90
19610;DHT22;9952;47.122;-1.638;2022-07-29T16:42:46;27.50;99.90
19610;DHT22;9952;47.122;-1.638;2022-07-29T16:47:27;27.40;99.90
19610;DHT22;9952;47.122;-1.638;2022-07-29T16:52:08;27.40;99.90
19610;DHT22;9952;47.122;-1.638;2022-07-29T16:56:49;27.30;99.90
19610;DHT22;9952;47.122;-1.638;2022-07-29T17:01:30;27.10;99.90
19610;DHT22;9952;47.122;-1.638;2022-07-29T17:06:10;27.00;99.90
19610;DHT22;9952;47.122;-1.638;2022-07-29T17:10:51;27.00;99.90
19610;DHT22;9952;47.122;-1.638;2022-07-29T17:15:32;26.90;99.90
19610;DHT22;9952;47.122;-1.638;2022-07-29T17:20:13;26.80;99.90
19610;DHT22;9952;47.122;-1.638;2022-07-29T17:24:53;26.70;99.90
19610;DHT22;9952;47.122;-1.638;2022-07-29T17:29:34;26.60;99.90
19610;DHT22;9952;47.122;-1.638;2022-07-29T17:34:15;26.50;99.90
19610;DHT22;9952;47.122;-1.638;2022-07-29T17:39:02;26.40;99.90
19610;DHT22;9952;47.122;-1.638;2022-07-29T17:43:43;26.40;99.90
19610;DHT22;9952;47.122;-1.638;2022-07-29T17:48:23;26.40;99.90
19610;DHT22;9952;47.122;-1.638;2022-07-29T17:53:04;26.20;99.90
19610;DHT22;9952;47.122;-1.638;2022-07-29T17:57:45;26.10;99.90
19610;DHT22;9952;47.122;-1.638;2022-07-29T18:02:26;26.00;99.90
19610;DHT22;9952;47.122;-1.638;2022-07-29T18:07:06;25.90;99.90
19610;DHT22;9952;47.122;-1.638;2022-07-29T18:11:47;25.80;99.90
19610;DHT22;9952;47.122;-1.638;2022-07-29T18:16:28;25.80;99.90
19610;DHT22;9952;47.122;-1.638;2022-07-29T18:21:10;25.80;99.90
19610;DHT22;9952;47.122;-1.638;2022-07-29T18:25:51;25.80;99.90
19610;DHT22;9952;47.122;-1.638;2022-07-29T18:30:33;25.60;99.90
19610;DHT22;9952;47.122;-1.638;2022-07-29T18:35:16;25.50;99.90
19610;DHT22;9952;47.122;-1.638;2022-07-29T18:39:57;25.40;99.90
19610;DHT22;9952;47.122;-1.638;2022-07-29T18:44:38;25.30;99.90
19610;DHT22;9952;47.122;-1.638;2022-07-29T18:49:19;25.20;99.90
19610;DHT22;9952;47.122;-1.638;2022-07-29T18:53:59;25.20;99.90
19610;DHT22;9952;47.122;-1.638;2022-07-29T18:58:40;25.10;99.90
19610;DHT22;9952;47.122;-1.638;2022-07-29T19:03:21;24.90;99.90
19610;DHT22;9952;47.122;-1.638;2022-07-29T19:08:02;24.80;99.90
19610;DHT22;9952;47.122;-1.638;2022-07-29T19:12:42;24.50;99.90
19610;DHT22;9952;47.122;-1.638;2022-07-29T19:17:23;24.40;99.90
19610;DHT22;9952;47.122;-1.638;2022-07-29T19:22:04;24.30;99.90
19610;DHT22;9952;47.122;-1.638;2022-07-29T19:26:45;24.10;99.90
19610;DHT22;9952;47.122;-1.638;2022-07-29T19:31:29;23.90;99.90
19610;DHT22;9952;47.122;-1.638;2022-07-29T19:36:10;23.90;99.90
19610;DHT22;9952;47.122;-1.638;2022-07-29T19:40:51;23.80;99.90
19610;DHT22;9952;47.122;-1.638;2022-07-29T19:45:32;23.70;99.90
19610;DHT22;9952;47.122;-1.638;2022-07-29T19:50:13;23.70;99.90
19610;DHT22;9952;47.122;-1.638;2022-07-29T19:54:53;23.60;99.90
19610;DHT22;9952;47.122;-1.638;2022-07-29T19:59:34;23.40;99.90
19610;DHT22;9952;47.122;-1.638;2022-07-29T20:04:15;23.40;99.90
19610;DHT22;9952;47.122;-1.638;2022-07-29T20:08:56;23.30;99.90
19610;DHT22;9952;47.122;-1.638;2022-07-29T20:13:37;23.20;99.90
19610;DHT22;9952;47.122;-1.638;2022-07-29T20:18:18;23.10;99.90
19610;DHT22;9952;47.122;-1.638;2022-07-29T20:22:59;22.90;99.90
19610;DHT22;9952;47.122;-1.638;2022-07-29T20:27:41;22.90;99.90
19610;DHT22;9952;47.122;-1.638;2022-07-29T20:32:22;22.80;99.90
19610;DHT22;9952;47.122;-1.638;2022-07-29T20:37:03;22.70;99.90
19610;DHT22;9952;47.122;-1.638;2022-07-29T20:41:44;22.60;99.90
19610;DHT22;9952;47.122;-1.638;2022-07-29T20:46:25;22.50;99.90
19610;DHT22;9952;47.122;-1.638;2022-07-29T20:51:06;22.50;99.90
19610;DHT22;9952;47.122;-1.638;2022-07-29T20:55:47;22.40;99.90
19610;DHT22;9952;47.122;-1.638;2022-07-29T21:00:28;22.40;99.90
19610;DHT22;9952;47.122;-1.638;2022-07-29T21:05:09;22.30;99.90
19610;DHT22;9952;47.122;-1.638;2022-07-29T21:09:50;22.30;99.90
19610;DHT22;9952;47.122;-1.638;2022-07-29T21:14:31;22.20;99.90
19610;DHT22;9952;47.122;-1.638;2022-07-29T21:19:20;22.10;99.90
19610;DHT22;9952;47.122;-1.638;2022-07-29T21:24:01;22.10;99.90
19610;DHT22;9952;47.122;-1.638;2022-07-29T21:28:43;22.00;99.90
19610;DHT22;9952;47.122;-1.638;2022-07-29T21:33:25;21.90;99.90
19610;DHT22;9952;47.122;-1.638;2022-07-29T21:38:06;21.90;99.90
19610;DHT22;9952;47.122;-1.638;2022-07-29T21:42:47;21.80;99.90
19610;DHT22;9952;47.122;-1.638;2022-07-29T21:47:28;21.70;99.90
19610;DHT22;9952;47.122;-1.638;2022-07-29T21:52:08;21.70;99.90
19610;DHT22;9952;47.122;-1.638;2022-07-29T21:56:49;21.70;99.90
19610;DHT22;9952;47.122;-1.638;2022-07-29T22:01:30;21.50;99.90
19610;DHT22;9952;47.122;-1.638;2022-07-29T22:06:11;21.50;99.90
19610;DHT22;9952;47.122;-1.638;2022-07-29T22:10:51;21.50;99.90
19610;DHT22;9952;47.122;-1.638;2022-07-29T22:15:32;21.50;99.90
19610;DHT22;9952;47.122;-1.638;2022-07-29T22:20:13;21.40;99.90
19610;DHT22;9952;47.122;-1.638;2022-07-29T22:24:54;21.30;99.90
19610;DHT22;9952;47.122;-1.638;2022-07-29T22:29:35;21.30;99.90
19610;DHT22;9952;47.122;-1.638;2022-07-29T22:34:16;21.30;99.90
19610;DHT22;9952;47.122;-1.638;2022-07-29T22:38:56;21.20;99.90
19610;DHT22;9952;47.122;-1.638;2022-07-29T22:43:38;21.20;99.90
19610;DHT22;9952;47.122;-1.638;2022-07-29T22:48:19;21.10;99.90
19610;DHT22;9952;47.122;-1.638;2022-07-29T22:53:00;21.10;99.90
19610;DHT22;9952;47.122;-1.638;2022-07-29T22:57:41;21.10;99.90
19610;DHT22;9952;47.122;-1.638;2022-07-29T23:02:21;21.00;99.90
19610;DHT22;9952;47.122;-1.638;2022-07-29T23:07:02;21.00;99.90
19610;DHT22;9952;47.122;-1.638;2022-07-29T23:11:43;21.00;99.90
19610;DHT22;9952;47.122;-1.638;2022-07-29T23:16:24;20.90;99.90
19610;DHT22;9952;47.122;-1.638;2022-07-29T23:21:05;20.90;99.90
19610;DHT22;9952;47.122;-1.638;2022-07-29T23:25:46;20.90;99.90
19610;DHT22;9952;47.122;-1.638;2022-07-29T23:30:27;20.80;99.90
19610;DHT22;9952;47.122;-1.638;2022-07-29T23:35:08;20.80;99.90
19610;DHT22;9952;47.122;-1.638;2022-07-29T23:39:49;20.80;99.90
19610;DHT22;9952;47.122;-1.638;2022-07-29T23:44:29;20.70;99.90
19610;DHT22;9952;47.122;-1.638;2022-07-29T23:49:10;20.60;99.90
19610;DHT22;9952;47.122;-1.638;2022-07-29T23:53:51;20.50;99.90
